createdAt,value
2018-08-16T00:01:45.702Z,101309.25
2018-08-16T00:04:14.261Z,101310.68
2018-08-16T00:06:43.292Z,101309.82
2018-08-16T00:09:11.745Z,101306.42
2018-08-16T00:11:41.727Z,101307.28
2018-08-16T00:14:11.014Z,101303.94
2018-08-16T00:16:39.464Z,101307.28
2018-08-16T00:19:07.990Z,101298.73
2018-08-16T00:21:36.467Z,101306.57
2018-08-16T00:24:04.888Z,101301.45
2018-08-16T00:26:33.430Z,101304.89
2018-08-16T00:29:01.947Z,101304.91
2018-08-16T00:31:30.491Z,101303.97
2018-08-16T00:33:58.942Z,101304.44
2018-08-16T00:36:27.481Z,101308.73
2018-08-16T00:38:56.479Z,101298.91
2018-08-16T00:41:25.515Z,101306.31
2018-08-16T00:43:54.050Z,101301.66
2018-08-16T00:46:22.525Z,101302.08
2018-08-16T00:48:51.148Z,101300.45
2018-08-16T00:51:19.594Z,101305.42
2018-08-16T00:53:48.092Z,101305.06
2018-08-16T00:56:16.879Z,101303.26
2018-08-16T00:58:47.328Z,101301.81
2018-08-16T01:01:16.767Z,101300.77
2018-08-16T01:03:45.677Z,101300.68
2018-08-16T01:06:14.216Z,101297.95
2018-08-16T01:08:42.782Z,101295.47
2018-08-16T01:11:11.348Z,101293.47
2018-08-16T01:13:39.827Z,101291.42
2018-08-16T01:16:08.237Z,101294.59
2018-08-16T01:18:36.749Z,101296.48
2018-08-16T01:21:06.228Z,101285.83
2018-08-16T01:23:34.760Z,101291.06
2018-08-16T01:26:03.330Z,101287.69
2018-08-16T01:28:32.921Z,101288.63
2018-08-16T01:31:02.177Z,101293.59
2018-08-16T01:33:31.718Z,101298.89
2018-08-16T01:36:00.204Z,101292.29
2018-08-16T01:38:28.893Z,101294.98
2018-08-16T01:40:57.360Z,101291.63
2018-08-16T01:43:26.422Z,101290.24
2018-08-16T01:45:55.218Z,101287.81
2018-08-16T01:48:23.694Z,101296.50
2018-08-16T01:50:52.120Z,101289.97
2018-08-16T01:53:20.599Z,101287.89
2018-08-16T01:55:49.072Z,101279.16
2018-08-16T01:58:18.529Z,101283.93
2018-08-16T02:00:47.020Z,101284.02
2018-08-16T02:03:15.509Z,101277.62
2018-08-16T02:05:44.169Z,101279.22
2018-08-16T02:08:12.731Z,101274.11
2018-08-16T02:10:41.458Z,101281.00
2018-08-16T02:13:11.176Z,101278.89
2018-08-16T02:15:45.079Z,101281.91
2018-08-16T02:18:13.792Z,101281.14
2018-08-16T02:20:42.451Z,101276.27
2018-08-16T02:23:11.033Z,101279.33
2018-08-16T02:25:39.597Z,101276.01
2018-08-16T02:28:09.087Z,101279.11
2018-08-16T02:30:37.632Z,101281.19
2018-08-16T02:33:06.294Z,101276.89
2018-08-16T02:35:35.337Z,101278.19
2018-08-16T02:38:03.754Z,101274.34
2018-08-16T02:40:32.207Z,101275.67
2018-08-16T02:43:00.681Z,101274.39
2018-08-16T02:45:30.007Z,101270.05
2018-08-16T02:47:59.409Z,101267.45
2018-08-16T02:50:27.909Z,101271.44
2018-08-16T02:52:56.474Z,101265.04
2018-08-16T02:55:25.027Z,101267.78
2018-08-16T02:57:53.552Z,101272.04
2018-08-16T03:00:22.258Z,101269.86
2018-08-16T03:02:50.701Z,101275.42
2018-08-16T03:05:20.079Z,101268.50
2018-08-16T03:07:48.470Z,101265.89
2018-08-16T03:10:17.177Z,101259.83
2018-08-16T03:12:45.730Z,101267.61
2018-08-16T03:15:14.885Z,101262.44
2018-08-16T03:17:43.382Z,101261.66
2018-08-16T03:20:11.858Z,101267.36
2018-08-16T03:22:40.358Z,101261.73
2018-08-16T03:25:09.441Z,101261.66
2018-08-16T03:27:37.894Z,101262.58
2018-08-16T03:30:07.837Z,101260.44
2018-08-16T03:32:37.038Z,101261.05
2018-08-16T03:35:06.136Z,101256.62
2018-08-16T03:37:34.637Z,101249.17
2018-08-16T03:40:03.188Z,101250.01
2018-08-16T03:42:31.661Z,101248.20
2018-08-16T03:45:00.169Z,101245.22
2018-08-16T03:47:28.644Z,101250.95
2018-08-16T03:49:58.145Z,101251.41
2018-08-16T03:52:27.139Z,101247.88
2018-08-16T03:54:56.825Z,101248.79
2018-08-16T03:57:25.349Z,101252.36
2018-08-16T03:59:53.884Z,101246.71
2018-08-16T04:02:22.327Z,101249.78
2018-08-16T04:04:51.471Z,101248.98
2018-08-16T04:07:21.178Z,101245.16
2018-08-16T04:09:49.666Z,101249.94
2018-08-16T04:12:19.256Z,101245.55
2018-08-16T04:14:48.259Z,101244.49
2018-08-16T04:17:17.276Z,101240.20
2018-08-16T04:19:46.776Z,101240.66
2018-08-16T04:22:16.802Z,101244.97
2018-08-16T04:24:46.305Z,101245.45
2018-08-16T04:27:15.271Z,101245.02
2018-08-16T04:29:43.847Z,101242.16
2018-08-16T04:32:13.917Z,101245.62
2018-08-16T04:34:42.390Z,101246.58
2018-08-16T04:37:11.123Z,101243.13
2018-08-16T04:39:39.664Z,101242.82
2018-08-16T04:42:08.383Z,101242.14
2018-08-16T04:44:37.486Z,101243.44
2018-08-16T04:47:06.997Z,101240.78
2018-08-16T04:49:36.162Z,101243.80
2018-08-16T04:52:04.797Z,101232.44
2018-08-16T04:54:33.399Z,101241.02
2018-08-16T04:57:01.922Z,101243.87
2018-08-16T04:59:30.348Z,101251.47
2018-08-16T05:02:00.470Z,101253.83
2018-08-16T05:04:28.886Z,101254.69
2018-08-16T05:06:57.338Z,101254.50
2018-08-16T05:09:26.268Z,101250.40
2018-08-16T05:11:54.776Z,101249.84
2018-08-16T05:14:23.245Z,101247.11
2018-08-16T05:16:52.526Z,101243.14
2018-08-16T05:19:21.737Z,101241.91
2018-08-16T05:21:50.275Z,101242.20
2018-08-16T05:24:18.664Z,101239.16
2018-08-16T05:26:47.799Z,101244.77
2018-08-16T05:29:16.456Z,101249.89
2018-08-16T05:31:45.041Z,101237.12
2018-08-16T05:34:14.820Z,101249.39
2018-08-16T05:36:43.277Z,101240.37
2018-08-16T05:39:13.357Z,101240.07
2018-08-16T05:41:42.223Z,101245.93
2018-08-16T05:44:10.851Z,101241.67
2018-08-16T05:46:39.428Z,101245.81
2018-08-16T05:49:08.119Z,101238.34
2018-08-16T05:51:36.835Z,101242.57
2018-08-16T05:54:09.580Z,101238.00
2018-08-16T05:56:39.157Z,101234.25
2018-08-16T05:59:07.924Z,101235.88
2018-08-16T06:01:36.416Z,101229.77
2018-08-16T06:04:05.603Z,101230.02
2018-08-16T06:06:34.474Z,101225.22
2018-08-16T06:09:03.394Z,101221.05
2018-08-16T06:11:32.134Z,101222.22
2018-08-16T06:14:01.194Z,101220.88
2018-08-16T06:16:30.910Z,101216.36
2018-08-16T06:18:59.417Z,101219.18
2018-08-16T06:21:28.497Z,101212.08
2018-08-16T06:23:57.647Z,101208.06
2018-08-16T06:26:26.383Z,101214.03
2018-08-16T06:28:55.099Z,101204.77
2018-08-16T06:31:23.851Z,101209.39
2018-08-16T06:33:52.575Z,101207.88
2018-08-16T06:36:22.086Z,101212.89
2018-08-16T06:38:50.673Z,101208.80
2018-08-16T06:41:19.214Z,101205.08
2018-08-16T06:43:47.825Z,101205.34
2018-08-16T06:46:17.741Z,101200.84
2018-08-16T06:48:47.152Z,101207.58
2018-08-16T06:51:15.873Z,101204.75
2018-08-16T06:53:45.355Z,101196.73
2018-08-16T06:56:14.269Z,101198.11
2018-08-16T06:58:42.911Z,101193.10
2018-08-16T07:01:12.080Z,101192.95
2018-08-16T07:03:40.589Z,101186.72
2018-08-16T07:06:09.304Z,101190.48
2018-08-16T07:08:37.817Z,101192.56
2018-08-16T07:11:06.509Z,101192.36
2018-08-16T07:13:35.646Z,101186.57
2018-08-16T07:16:05.000Z,101185.59
2018-08-16T07:18:33.495Z,101185.52
2018-08-16T07:21:01.965Z,101189.56
2018-08-16T07:23:30.720Z,101181.56
2018-08-16T07:25:59.305Z,101180.83
2018-08-16T07:28:28.706Z,101180.21
2018-08-16T07:30:58.082Z,101177.88
2018-08-16T07:33:26.569Z,101178.94
2018-08-16T07:35:55.201Z,101179.67
2018-08-16T07:38:23.677Z,101179.59
2018-08-16T07:40:52.328Z,101175.82
2018-08-16T07:43:21.229Z,101172.63
2018-08-16T07:45:51.054Z,101172.91
2018-08-16T07:48:19.489Z,101176.63
2018-08-16T07:50:49.057Z,101176.98
2018-08-16T07:53:17.538Z,101169.37
2018-08-16T07:55:46.834Z,101169.93
2018-08-16T07:58:15.573Z,101173.63
2018-08-16T08:00:44.121Z,101171.20
2018-08-16T08:03:12.960Z,101177.16
2018-08-16T08:05:41.707Z,101172.66
2018-08-16T08:08:11.293Z,101179.14
2018-08-16T08:10:41.496Z,101170.17
2018-08-16T08:13:10.056Z,101170.88
2018-08-16T08:15:38.724Z,101177.61
2018-08-16T08:18:07.669Z,101173.45
2018-08-16T08:20:36.187Z,101167.86
2018-08-16T08:23:04.805Z,101166.77
2018-08-16T08:25:34.140Z,101165.27
2018-08-16T08:28:03.022Z,101164.59
2018-08-16T08:30:31.414Z,101170.09
2018-08-16T08:33:00.087Z,101167.28
2018-08-16T08:35:28.621Z,101170.88
2018-08-16T08:38:03.763Z,101163.14
2018-08-16T08:40:32.297Z,101165.03
2018-08-16T08:43:00.773Z,101154.81
2018-08-16T08:45:29.678Z,101152.39
2018-08-16T08:47:59.194Z,101153.91
2018-08-16T08:50:28.873Z,101145.44
2018-08-16T08:53:08.501Z,101147.77
2018-08-16T08:55:48.172Z,101141.93
2018-08-16T08:58:27.914Z,101137.59
2018-08-16T09:00:56.513Z,101131.50
2018-08-16T09:03:25.128Z,101133.92
2018-08-16T09:05:53.666Z,101133.62
2018-08-16T09:08:22.292Z,101129.42
2018-08-16T09:11:06.397Z,101123.47
2018-08-16T09:13:46.270Z,101118.02
2018-08-16T09:16:21.559Z,101115.58
2018-08-16T09:18:50.211Z,101116.16
2018-08-16T09:21:20.000Z,101112.00
2018-08-16T09:23:48.735Z,101107.30
2018-08-16T09:26:22.513Z,101100.88
2018-08-16T09:28:50.981Z,101101.52
2018-08-16T09:31:30.751Z,101093.48
2018-08-16T09:34:24.442Z,101092.95
2018-08-16T09:36:53.198Z,101092.95
2018-08-16T09:39:22.373Z,101095.65
2018-08-16T09:41:51.037Z,101089.31
2018-08-16T09:44:20.798Z,101089.61
2018-08-16T09:47:15.662Z,101082.82
2018-08-16T09:49:51.285Z,101076.94
2018-08-16T09:52:20.936Z,101077.17
2018-08-16T09:54:50.616Z,101068.89
2018-08-16T09:57:19.267Z,101070.20
2018-08-16T09:59:47.887Z,101075.56
2018-08-16T10:02:18.058Z,101065.72
2018-08-16T10:04:47.256Z,101066.66
2018-08-16T10:07:16.078Z,101060.59
2018-08-16T10:09:44.603Z,101066.70
2018-08-16T10:12:13.345Z,101058.18
2018-08-16T10:14:42.346Z,101068.98
2018-08-16T10:17:10.845Z,101067.92
2018-08-16T10:19:39.580Z,101060.31
2018-08-16T10:22:09.845Z,101055.27
2018-08-16T10:24:39.019Z,101048.38
2018-08-16T10:27:07.602Z,101035.41
2018-08-16T10:29:36.250Z,101037.53
2018-08-16T10:32:05.677Z,101040.91
2018-08-16T10:34:34.305Z,101043.02
2018-08-16T10:37:03.706Z,101045.08
2018-08-16T10:39:32.759Z,101029.04
2018-08-16T10:42:01.715Z,101029.19
2018-08-16T10:44:30.150Z,101029.05
2018-08-16T10:46:59.013Z,101026.45
2018-08-16T10:49:27.527Z,101025.14
2018-08-16T10:51:57.135Z,101022.98
2018-08-16T10:54:25.648Z,101023.06
2018-08-16T10:56:54.200Z,101020.16
2018-08-16T10:59:22.680Z,101017.05
2018-08-16T11:01:51.394Z,101014.80
2018-08-16T11:04:20.115Z,101012.06
2018-08-16T11:06:49.541Z,101011.60
2018-08-16T11:09:19.107Z,101007.38
2018-08-16T11:11:47.580Z,101003.89
2018-08-16T11:14:16.008Z,101006.25
2018-08-16T11:16:44.520Z,100999.50
2018-08-16T11:19:13.048Z,101001.46
2018-08-16T11:21:41.578Z,100997.14
2018-08-16T11:24:10.132Z,100990.22
2018-08-16T11:26:38.729Z,100990.10
2018-08-16T11:29:07.314Z,100989.14
2018-08-16T11:31:35.836Z,100992.89
2018-08-16T11:34:04.317Z,100987.83
2018-08-16T11:36:32.789Z,100988.09
2018-08-16T11:39:02.061Z,100980.82
2018-08-16T11:41:31.048Z,100972.50
2018-08-16T11:44:01.290Z,100978.50
2018-08-16T11:46:29.878Z,100969.92
2018-08-16T11:48:58.536Z,100963.79
2018-08-16T11:51:27.583Z,100969.63
2018-08-16T11:53:56.384Z,100965.53
2018-08-16T11:56:24.894Z,100970.61
2018-08-16T11:58:54.187Z,100964.73
2018-08-16T12:01:22.678Z,100960.11
2018-08-16T12:03:51.244Z,100965.28
2018-08-16T12:06:19.747Z,100958.79
2018-08-16T12:08:48.319Z,100958.60
2018-08-16T12:11:17.092Z,100961.41
2018-08-16T12:13:46.148Z,100956.50
2018-08-16T12:16:14.765Z,100950.91
2018-08-16T12:18:43.433Z,100949.16
2018-08-16T12:21:11.977Z,100945.55
2018-08-16T12:23:40.937Z,100934.66
2018-08-16T12:26:09.708Z,100942.26
2018-08-16T12:28:38.465Z,100940.81
2018-08-16T12:31:07.048Z,100933.20
2018-08-16T12:33:36.051Z,100938.92
2018-08-16T12:36:05.782Z,100931.53
2018-08-16T12:38:35.024Z,100930.28
2018-08-16T12:41:04.004Z,100927.88
2018-08-16T12:43:35.160Z,100927.80
2018-08-16T12:46:03.732Z,100924.83
2018-08-16T12:48:32.408Z,100918.22
2018-08-16T12:51:01.078Z,100915.44
2018-08-16T12:53:31.624Z,100900.92
2018-08-16T12:56:00.110Z,100900.87
2018-08-16T12:58:28.567Z,100893.17
2018-08-16T13:00:57.102Z,100896.09
2018-08-16T13:03:26.028Z,100894.09
2018-08-16T13:05:54.977Z,100885.58
2018-08-16T13:08:24.229Z,100876.44
2018-08-16T13:10:53.645Z,100882.89
2018-08-16T13:13:22.089Z,100881.07
2018-08-16T13:15:52.218Z,100879.17
2018-08-16T13:18:21.066Z,100877.11
2018-08-16T13:20:49.566Z,100871.93
2018-08-16T13:23:18.763Z,100865.77
2018-08-16T13:25:48.485Z,100865.91
2018-08-16T13:28:17.009Z,100860.49
2018-08-16T13:30:45.418Z,100859.05
2018-08-16T13:33:13.943Z,100859.65
2018-08-16T13:35:42.971Z,100850.09
2018-08-16T13:38:11.670Z,100855.88
2018-08-16T13:40:40.152Z,100857.17
2018-08-16T13:43:08.696Z,100839.56
2018-08-16T13:45:37.528Z,100838.45
2018-08-16T13:48:06.520Z,100836.25
2018-08-16T13:50:36.686Z,100834.06
2018-08-16T13:53:07.436Z,100832.89
2018-08-16T13:55:36.853Z,100833.00
2018-08-16T13:58:05.733Z,100838.03
2018-08-16T14:00:36.163Z,100837.60
2018-08-16T14:03:05.589Z,100830.58
2018-08-16T14:05:34.034Z,100829.95
2018-08-16T14:08:12.201Z,100825.12
2018-08-16T14:10:41.758Z,100826.87
2018-08-16T14:13:10.281Z,100832.77
2018-08-16T14:15:38.822Z,100832.88
2018-08-16T14:18:07.914Z,100823.97
2018-08-16T14:20:36.585Z,100825.08
2018-08-16T14:23:06.278Z,100811.39
2018-08-16T14:25:35.637Z,100822.78
2018-08-16T14:28:04.852Z,100819.83
2018-08-16T14:30:33.402Z,100817.48
2018-08-16T14:33:02.160Z,100822.34
2018-08-16T14:35:30.644Z,100805.30
2018-08-16T14:38:00.665Z,100809.52
2018-08-16T14:40:30.545Z,100809.82
2018-08-16T14:42:59.676Z,100810.58
2018-08-16T14:45:29.100Z,100804.56
2018-08-16T14:48:00.656Z,100799.92
2018-08-16T14:50:29.158Z,100806.59
2018-08-16T14:52:57.643Z,100799.11
2018-08-16T14:55:27.296Z,100793.45
2018-08-16T14:57:57.048Z,100796.40
2018-08-16T15:00:27.564Z,100794.98
2018-08-16T15:02:56.602Z,100793.25
2018-08-16T15:05:25.251Z,100790.86
2018-08-16T15:07:53.744Z,100792.95
2018-08-16T15:10:23.342Z,100794.77
2018-08-16T15:12:52.032Z,100789.33
2018-08-16T15:15:22.221Z,100782.23
2018-08-16T15:17:50.861Z,100781.11
2018-08-16T15:20:20.850Z,100775.56
2018-08-16T15:22:49.946Z,100772.71
2018-08-16T15:25:18.392Z,100775.14
2018-08-16T15:27:48.741Z,100778.84
2018-08-16T15:30:17.270Z,100770.88
2018-08-16T15:32:47.183Z,100777.80
2018-08-16T15:35:17.195Z,100769.41
2018-08-16T15:37:46.763Z,100766.27
2018-08-16T15:40:15.325Z,100766.25
2018-08-16T15:42:44.407Z,100765.39
2018-08-16T15:45:12.871Z,100774.16
2018-08-16T15:47:41.979Z,100770.78
2018-08-16T15:50:10.531Z,100770.09
2018-08-16T15:52:39.507Z,100771.63
2018-08-16T15:55:09.088Z,100770.66
2018-08-16T15:57:38.228Z,100766.14
2018-08-16T16:00:10.297Z,100767.21
2018-08-16T16:02:39.589Z,100765.81
2018-08-16T16:05:09.719Z,100763.34
2018-08-16T16:07:39.201Z,100760.48
2018-08-16T16:10:08.629Z,100754.60
2018-08-16T16:12:38.133Z,100757.75
2018-08-16T16:15:08.319Z,100766.73
2018-08-16T16:17:36.929Z,100757.63
2018-08-16T16:20:07.059Z,100757.05
2018-08-16T16:22:36.175Z,100756.77
2018-08-16T16:25:05.193Z,100750.30
2018-08-16T16:27:35.137Z,100749.24
2018-08-16T16:30:06.846Z,100751.56
2018-08-16T16:32:37.036Z,100747.62
2018-08-16T16:35:06.267Z,100743.58
2018-08-16T16:37:34.903Z,100746.73
2018-08-16T16:40:03.690Z,100747.20
2018-08-16T16:42:32.272Z,100742.50
2018-08-16T16:45:01.329Z,100741.53
2018-08-16T16:47:30.158Z,100741.31
2018-08-16T16:49:58.736Z,100732.52
2018-08-16T16:52:27.953Z,100735.28
2018-08-16T16:54:56.828Z,100729.05
2018-08-16T16:57:26.360Z,100737.61
2018-08-16T16:59:55.424Z,100730.03
2018-08-16T17:02:24.834Z,100728.36
2018-08-16T17:04:54.657Z,100735.20
2018-08-16T17:07:23.451Z,100730.28
2018-08-16T17:09:52.776Z,100729.42
2018-08-16T17:12:22.669Z,100740.71
2018-08-16T17:14:51.490Z,100735.91
2018-08-16T17:17:20.072Z,100730.97
2018-08-16T17:19:48.527Z,100730.91
2018-08-16T17:22:17.156Z,100731.02
2018-08-16T17:24:45.620Z,100730.76
2018-08-16T17:27:15.086Z,100730.52
2018-08-16T17:29:43.566Z,100730.25
2018-08-16T17:32:12.946Z,100728.80
2018-08-16T17:34:41.452Z,100731.53
2018-08-16T17:37:09.887Z,100729.56
2018-08-16T17:39:38.519Z,100737.92
2018-08-16T17:42:07.375Z,100733.58
2018-08-16T17:44:35.785Z,100727.16
2018-08-16T17:47:04.423Z,100727.38
2018-08-16T17:49:32.962Z,100729.27
2018-08-16T17:52:01.533Z,100731.61
2018-08-16T17:54:30.640Z,100735.28
2018-08-16T17:57:00.211Z,100736.83
2018-08-16T17:59:29.692Z,100746.05
2018-08-16T18:01:59.851Z,100739.36
2018-08-16T18:04:29.268Z,100741.13
2018-08-16T18:06:58.454Z,100741.07
2018-08-16T18:09:27.564Z,100738.87
2018-08-16T18:11:56.083Z,100741.11
2018-08-16T18:14:24.777Z,100738.91
2018-08-16T18:16:53.526Z,100742.43
2018-08-16T18:19:22.595Z,100739.60
2018-08-16T18:21:51.079Z,100740.52
2018-08-16T18:24:19.831Z,100743.20
2018-08-16T18:26:50.148Z,100750.29
2018-08-16T18:29:18.601Z,100747.33
2018-08-16T18:31:47.129Z,100744.99
2018-08-16T18:34:16.374Z,100745.55
2018-08-16T18:36:45.512Z,100751.04
2018-08-16T18:39:13.935Z,100757.11
2018-08-16T18:41:42.933Z,100760.48
2018-08-16T18:44:12.998Z,100764.25
2018-08-16T18:46:41.830Z,100770.42
2018-08-16T18:49:10.379Z,100770.67
2018-08-16T18:51:39.806Z,100770.89
2018-08-16T18:54:09.139Z,100774.04
2018-08-16T18:56:37.849Z,100777.19
2018-08-16T18:59:06.832Z,100775.82
2018-08-16T19:01:35.476Z,100780.45
2018-08-16T19:04:03.997Z,100784.49
2018-08-16T19:06:33.593Z,100782.19
2018-08-16T19:09:02.507Z,100779.73
2018-08-16T19:11:31.682Z,100786.73
2018-08-16T19:14:00.308Z,100779.77
2018-08-16T19:16:28.783Z,100786.20
2018-08-16T19:18:57.623Z,100786.73
2018-08-16T19:21:26.619Z,100791.94
2018-08-16T19:23:55.278Z,100792.13
2018-08-16T19:26:23.957Z,100788.95
2018-08-16T19:28:52.392Z,100788.02
2018-08-16T19:31:21.873Z,100789.84
2018-08-16T19:33:52.269Z,100788.46
2018-08-16T19:36:20.806Z,100794.84
2018-08-16T19:38:49.293Z,100788.98
2018-08-16T19:41:21.576Z,100791.15
2018-08-16T19:43:52.107Z,100798.88
2018-08-16T19:46:22.178Z,100795.31
2018-08-16T19:48:51.121Z,100791.73
2018-08-16T19:51:21.035Z,100786.85
2018-08-16T19:53:49.664Z,100792.85
2018-08-16T19:56:20.208Z,100796.21
2018-08-16T19:58:50.050Z,100796.33
2018-08-16T20:01:24.263Z,100800.75
2018-08-16T20:03:57.215Z,100799.27
2018-08-16T20:06:27.472Z,100794.75
2018-08-16T20:08:57.499Z,100799.37
2018-08-16T20:11:28.226Z,100803.50
2018-08-16T20:13:57.021Z,100807.19
2018-08-16T20:16:26.669Z,100806.92
2018-08-16T20:18:55.509Z,100811.89
2018-08-16T20:21:27.495Z,100814.00
2018-08-16T20:23:58.684Z,100808.47
2018-08-16T20:26:30.580Z,100816.27
2018-08-16T20:29:00.371Z,100816.20
2018-08-16T20:31:29.124Z,100824.77
2018-08-16T20:34:00.681Z,100821.57
2018-08-16T20:36:30.217Z,100827.23
2018-08-16T20:38:59.794Z,100823.36
2018-08-16T20:41:28.233Z,100832.97
2018-08-16T20:43:57.798Z,100831.93
2018-08-16T20:46:28.120Z,100829.74
2018-08-16T20:48:57.740Z,100833.14
2018-08-16T20:51:26.240Z,100833.89
2018-08-16T20:53:56.361Z,100842.44
2018-08-16T20:56:25.697Z,100834.16
2018-08-16T20:58:54.976Z,100846.11
2018-08-16T21:01:23.861Z,100844.68
2018-08-16T21:03:52.803Z,100848.35
2018-08-16T21:06:22.794Z,100848.89
2018-08-16T21:08:53.526Z,100852.18
2018-08-16T21:11:23.639Z,100858.86
2018-08-16T21:13:52.329Z,100856.58
2018-08-16T21:16:20.983Z,100860.06
2018-08-16T21:18:50.631Z,100861.48
2018-08-16T21:21:19.554Z,100865.77
2018-08-16T21:23:48.182Z,100866.06
2018-08-16T21:26:21.594Z,100868.38
2018-08-16T21:28:50.565Z,100870.61
2018-08-16T21:31:19.565Z,100874.16
2018-08-16T21:33:47.967Z,100877.25
2018-08-16T21:36:19.378Z,100873.94
2018-08-16T21:38:48.029Z,100877.93
2018-08-16T21:41:16.680Z,100880.74
2018-08-16T21:43:45.535Z,100877.02
2018-08-16T21:46:14.397Z,100884.87
2018-08-16T21:48:43.852Z,100885.44
2018-08-16T21:51:13.635Z,100885.16
2018-08-16T21:53:42.241Z,100890.20
2018-08-16T21:56:14.521Z,100894.84
2018-08-16T21:58:43.192Z,100893.42
2018-08-16T22:01:11.748Z,100888.66
2018-08-16T22:03:40.358Z,100892.20
2018-08-16T22:06:11.997Z,100895.45
2018-08-16T22:08:45.749Z,100895.23
2018-08-16T22:11:14.778Z,100897.70
2018-08-16T22:13:43.652Z,100909.62
2018-08-16T22:16:12.283Z,100912.65
2018-08-16T22:18:41.286Z,100912.35
2018-08-16T22:21:10.916Z,100912.20
2018-08-16T22:23:39.771Z,100909.57
2018-08-16T22:26:08.423Z,100907.41
2018-08-16T22:28:37.209Z,100908.89
2018-08-16T22:31:05.934Z,100905.13
2018-08-16T22:33:34.476Z,100910.99
2018-08-16T22:36:02.864Z,100908.67
2018-08-16T22:38:31.410Z,100913.94
2018-08-16T22:40:59.852Z,100914.08
2018-08-16T22:43:28.386Z,100911.68
2018-08-16T22:45:56.927Z,100905.84
2018-08-16T22:48:25.837Z,100917.31
2018-08-16T22:50:54.345Z,100913.70
2018-08-16T22:53:27.025Z,100914.02
2018-08-16T22:55:55.869Z,100917.02
2018-08-16T22:58:24.355Z,100910.86
2018-08-16T23:00:53.067Z,100909.84
2018-08-16T23:03:22.637Z,100907.07
2018-08-16T23:05:51.295Z,100908.06
2018-08-16T23:08:19.752Z,100912.60
2018-08-16T23:10:48.602Z,100910.17
2018-08-16T23:13:17.293Z,100909.92
2018-08-16T23:15:45.819Z,100917.48
2018-08-16T23:18:14.868Z,100912.55
2018-08-16T23:20:43.407Z,100906.55
2018-08-16T23:23:12.975Z,100903.02
2018-08-16T23:25:41.550Z,100908.55
2018-08-16T23:28:10.111Z,100912.09
2018-08-16T23:30:38.708Z,100913.61
2018-08-16T23:33:07.957Z,100913.52
2018-08-16T23:35:36.556Z,100913.88
2018-08-16T23:38:05.140Z,100914.98
2018-08-16T23:40:33.622Z,100912.27
2018-08-16T23:43:02.163Z,100906.52
2018-08-16T23:45:30.680Z,100912.91
2018-08-16T23:48:10.349Z,100913.52
2018-08-16T23:50:39.448Z,100914.98
2018-08-16T23:53:07.841Z,100914.13
2018-08-16T23:55:36.441Z,100906.64
2018-08-16T23:58:05.001Z,100907.03
